sensor_id;sensor_type;location;lat;lon;timestamp;pressure;altitude;pressure_sealevel;temperature;humidity
81865;BME280;71313;43.514;1.500;2024-03-29T00:01:50;97749.84;;;17.79;45.44
81865;BME280;71313;43.514;1.500;2024-03-29T00:04:16;97755.25;;;17.79;46.19
81865;BME280;71313;43.514;1.500;2024-03-29T00:06:41;97755.66;;;17.76;46.05
81865;BME280;71313;43.514;1.500;2024-03-29T00:09:06;97757.34;;;17.77;45.45
81865;BME280;71313;43.514;1.500;2024-03-29T00:11:32;97751.09;;;17.77;45.89
81865;BME280;71313;43.514;1.500;2024-03-29T00:13:57;97750.25;;;17.76;46.02
81865;BME280;71313;43.514;1.500;2024-03-29T00:16:24;97757.75;;;17.74;45.59
81865;BME280;71313;43.514;1.500;2024-03-29T00:18:53;97757.75;;;17.74;45.36
81865;BME280;71313;43.514;1.500;2024-03-29T00:21:18;97736.03;;;17.74;46.58
81865;BME280;71313;43.514;1.500;2024-03-29T00:23:44;97756.06;;;17.73;45.81
81865;BME280;71313;43.514;1.500;2024-03-29T00:26:10;97754.41;;;17.72;45.81
81865;BME280;71313;43.514;1.500;2024-03-29T00:28:36;97754.81;;;17.69;45.64
81865;BME280;71313;43.514;1.500;2024-03-29T00:31:02;97762.94;;;17.69;46.55
81865;BME280;71313;43.514;1.500;2024-03-29T00:33:27;97760.63;;;17.66;46.06
81865;BME280;71313;43.514;1.500;2024-03-29T00:35:53;97750.63;;;17.67;46.68
81865;BME280;71313;43.514;1.500;2024-03-29T00:38:19;97731.81;;;17.65;46.33
81865;BME280;71313;43.514;1.500;2024-03-29T00:40:44;97741.81;;;17.65;46.63
81865;BME280;71313;43.514;1.500;2024-03-29T00:43:09;97750.16;;;17.63;45.72
81865;BME280;71313;43.514;1.500;2024-03-29T00:45:35;97733.88;;;17.63;46.95
81865;BME280;71313;43.514;1.500;2024-03-29T00:48:00;97741.41;;;17.61;46.14
81865;BME280;71313;43.514;1.500;2024-03-29T00:50:27;97752.25;;;17.61;46.61
81865;BME280;71313;43.514;1.500;2024-03-29T00:55:57;97746.19;;;17.59;45.99
81865;BME280;71313;43.514;1.500;2024-03-29T00:58:23;97737.00;;;17.60;46.07
81865;BME280;71313;43.514;1.500;2024-03-29T01:00:50;97762.66;;;17.58;46.02
81865;BME280;71313;43.514;1.500;2024-03-29T01:03:22;97774.34;;;17.58;47.02
81865;BME280;71313;43.514;1.500;2024-03-29T01:05:47;97763.50;;;17.58;46.53
81865;BME280;71313;43.514;1.500;2024-03-29T01:08:14;97761.63;;;17.59;47.18
81865;BME280;71313;43.514;1.500;2024-03-29T01:10:41;97778.09;;;17.57;47.14
81865;BME280;71313;43.514;1.500;2024-03-29T01:13:07;97767.25;;;17.57;46.55
81865;BME280;71313;43.514;1.500;2024-03-29T01:15:32;97750.78;;;17.59;46.61
81865;BME280;71313;43.514;1.500;2024-03-29T01:17:57;97748.06;;;17.59;46.74
81865;BME280;71313;43.514;1.500;2024-03-29T01:20:23;97749.94;;;17.58;47.19
81865;BME280;71313;43.514;1.500;2024-03-29T01:22:48;97742.00;;;17.57;47.08
81865;BME280;71313;43.514;1.500;2024-03-29T01:25:15;97743.88;;;17.56;47.24
81865;BME280;71313;43.514;1.500;2024-03-29T01:27:42;97730.94;;;17.58;46.61
81865;BME280;71313;43.514;1.500;2024-03-29T01:30:08;97740.13;;;17.57;47.57
81865;BME280;71313;43.514;1.500;2024-03-29T01:32:36;97738.03;;;17.59;47.00
81865;BME280;71313;43.514;1.500;2024-03-29T01:35:01;97741.78;;;17.58;46.87
81865;BME280;71313;43.514;1.500;2024-03-29T01:37:26;97728.44;;;17.57;47.72
81865;BME280;71313;43.514;1.500;2024-03-29T01:39:52;97720.31;;;17.57;47.13
81865;BME280;71313;43.514;1.500;2024-03-29T01:42:17;97718.44;;;17.57;46.98
81865;BME280;71313;43.514;1.500;2024-03-29T01:44:43;97723.84;;;17.57;47.56
81865;BME280;71313;43.514;1.500;2024-03-29T01:47:09;97718.44;;;17.57;47.78
81865;BME280;71313;43.514;1.500;2024-03-29T01:49:35;97713.00;;;17.57;47.44
81865;BME280;71313;43.514;1.500;2024-03-29T01:52:02;97723.41;;;17.53;48.26
81865;BME280;71313;43.514;1.500;2024-03-29T01:54:28;97720.50;;;17.55;48.25
81865;BME280;71313;43.514;1.500;2024-03-29T01:56:54;97716.13;;;17.54;48.03
81865;BME280;71313;43.514;1.500;2024-03-29T01:59:21;97724.25;;;17.54;48.83
81865;BME280;71313;43.514;1.500;2024-03-29T02:01:47;97722.59;;;17.53;48.09
81865;BME280;71313;43.514;1.500;2024-03-29T02:04:14;97716.31;;;17.52;48.52
81865;BME280;71313;43.514;1.500;2024-03-29T02:06:40;97715.69;;;17.50;49.12
81865;BME280;71313;43.514;1.500;2024-03-29T02:09:07;97708.41;;;17.51;48.82
81865;BME280;71313;43.514;1.500;2024-03-29T02:11:34;97702.13;;;17.50;48.79
81865;BME280;71313;43.514;1.500;2024-03-29T02:14:00;97715.50;;;17.52;49.08
81865;BME280;71313;43.514;1.500;2024-03-29T02:16:26;97744.28;;;17.53;49.42
81865;BME280;71313;43.514;1.500;2024-03-29T02:18:52;97721.94;;;17.51;49.38
81865;BME280;71313;43.514;1.500;2024-03-29T02:21:19;97724.66;;;17.51;49.87
81865;BME280;71313;43.514;1.500;2024-03-29T02:23:47;97714.66;;;17.51;50.06
81865;BME280;71313;43.514;1.500;2024-03-29T02:26:16;97720.28;;;17.50;50.21
81865;BME280;71313;43.514;1.500;2024-03-29T02:28:42;97731.56;;;17.53;49.84
81865;BME280;71313;43.514;1.500;2024-03-29T02:31:08;97745.31;;;17.52;49.69
81865;BME280;71313;43.514;1.500;2024-03-29T02:33:38;97749.69;;;17.53;49.93
81865;BME280;71313;43.514;1.500;2024-03-29T02:36:08;97760.53;;;17.53;50.04
81865;BME280;71313;43.514;1.500;2024-03-29T02:38:35;97743.25;;;17.54;49.75
81865;BME280;71313;43.514;1.500;2024-03-29T02:41:02;97738.84;;;17.53;50.97
81865;BME280;71313;43.514;1.500;2024-03-29T02:43:28;97739.69;;;17.53;50.62
81865;BME280;71313;43.514;1.500;2024-03-29T02:45:54;97722.59;;;17.53;50.69
81865;BME280;71313;43.514;1.500;2024-03-29T02:48:20;97723.41;;;17.53;50.67
81865;BME280;71313;43.514;1.500;2024-03-29T02:50:45;97722.59;;;17.53;51.21
81865;BME280;71313;43.514;1.500;2024-03-29T02:53:10;97719.25;;;17.51;50.69
81865;BME280;71313;43.514;1.500;2024-03-29T02:55:36;97719.25;;;17.51;50.38
81865;BME280;71313;43.514;1.500;2024-03-29T02:58:02;97737.19;;;17.52;51.40
81865;BME280;71313;43.514;1.500;2024-03-29T03:00:27;97727.38;;;17.51;51.56
81865;BME280;71313;43.514;1.500;2024-03-29T03:02:52;97728.41;;;17.50;51.62
81865;BME280;71313;43.514;1.500;2024-03-29T03:05:18;97722.34;;;17.48;51.47
81865;BME280;71313;43.514;1.500;2024-03-29T03:07:44;97715.06;;;17.48;51.30
81865;BME280;71313;43.514;1.500;2024-03-29T03:10:29;97710.47;;;17.49;51.33
81865;BME280;71313;43.514;1.500;2024-03-29T03:13:14;97705.47;;;17.46;51.60
81865;BME280;71313;43.514;1.500;2024-03-29T03:15:40;97707.13;;;17.47;51.32
81865;BME280;71313;43.514;1.500;2024-03-29T03:18:08;97707.13;;;17.47;51.69
81865;BME280;71313;43.514;1.500;2024-03-29T03:20:34;97697.97;;;17.48;51.84
81865;BME280;71313;43.514;1.500;2024-03-29T03:23:00;97695.25;;;17.48;50.97
81865;BME280;71313;43.514;1.500;2024-03-29T03:25:28;97696.28;;;17.47;51.22
81865;BME280;71313;43.514;1.500;2024-03-29T03:27:54;97703.78;;;17.45;51.38
81865;BME280;71313;43.514;1.500;2024-03-29T03:30:19;97704.63;;;17.45;51.15
81865;BME280;71313;43.514;1.500;2024-03-29T03:32:45;97728.81;;;17.47;51.12
81865;BME280;71313;43.514;1.500;2024-03-29T03:35:10;97739.66;;;17.47;50.96
81865;BME280;71313;43.514;1.500;2024-03-29T03:37:37;97736.13;;;17.46;51.75
81865;BME280;71313;43.514;1.500;2024-03-29T03:40:03;97748.84;;;17.46;51.32
81865;BME280;71313;43.514;1.500;2024-03-29T03:42:29;97755.94;;;17.47;51.92
81865;BME280;71313;43.514;1.500;2024-03-29T03:44:55;97755.94;;;17.47;51.70
81865;BME280;71313;43.514;1.500;2024-03-29T03:47:21;97736.31;;;17.45;51.11
81865;BME280;71313;43.514;1.500;2024-03-29T03:49:46;97746.31;;;17.44;52.15
81865;BME280;71313;43.514;1.500;2024-03-29T03:52:12;97742.13;;;17.42;52.19
81865;BME280;71313;43.514;1.500;2024-03-29T03:54:38;97754.66;;;17.43;51.43
81865;BME280;71313;43.514;1.500;2024-03-29T03:57:04;97754.66;;;17.43;51.43
81865;BME280;71313;43.514;1.500;2024-03-29T03:59:30;97747.56;;;17.42;51.77
81865;BME280;71313;43.514;1.500;2024-03-29T04:01:56;97752.16;;;17.41;51.98
81865;BME280;71313;43.514;1.500;2024-03-29T04:04:24;97761.31;;;17.40;51.19
81865;BME280;71313;43.514;1.500;2024-03-29T04:06:49;97771.31;;;17.40;52.00
81865;BME280;71313;43.514;1.500;2024-03-29T04:09:16;97755.47;;;17.37;51.93
81865;BME280;71313;43.514;1.500;2024-03-29T04:11:42;97756.50;;;17.36;51.22
81865;BME280;71313;43.514;1.500;2024-03-29T04:14:07;97762.97;;;17.35;52.35
81865;BME280;71313;43.514;1.500;2024-03-29T04:16:33;97755.03;;;17.33;52.44
81865;BME280;71313;43.514;1.500;2024-03-29T04:18:58;97752.50;;;17.32;51.98
81865;BME280;71313;43.514;1.500;2024-03-29T04:21:24;97749.16;;;17.30;51.30
81865;BME280;71313;43.514;1.500;2024-03-29T04:23:51;97748.53;;;17.28;51.64
81865;BME280;71313;43.514;1.500;2024-03-29T04:26:17;97747.91;;;17.26;52.50
81865;BME280;71313;43.514;1.500;2024-03-29T04:28:42;97749.97;;;17.24;51.80
81865;BME280;71313;43.514;1.500;2024-03-29T04:31:07;97776.44;;;17.22;51.66
81865;BME280;71313;43.514;1.500;2024-03-29T04:33:34;97773.09;;;17.19;52.22
81865;BME280;71313;43.514;1.500;2024-03-29T04:36:02;97794.13;;;17.17;51.46
81865;BME280;71313;43.514;1.500;2024-03-29T04:38:28;97787.03;;;17.16;52.31
81865;BME280;71313;43.514;1.500;2024-03-29T04:40:55;97787.44;;;17.13;51.55
81865;BME280;71313;43.514;1.500;2024-03-29T04:43:24;97788.66;;;17.11;52.53
81865;BME280;71313;43.514;1.500;2024-03-29T04:45:50;97788.22;;;17.07;52.72
81865;BME280;71313;43.514;1.500;2024-03-29T04:48:16;97788.22;;;17.07;51.76
81865;BME280;71313;43.514;1.500;2024-03-29T04:50:41;97781.31;;;17.05;52.30
81865;BME280;71313;43.514;1.500;2024-03-29T04:53:09;97792.38;;;17.03;52.61
81865;BME280;71313;43.514;1.500;2024-03-29T04:55:34;97796.09;;;17.02;51.99
81865;BME280;71313;43.514;1.500;2024-03-29T04:58:01;97799.84;;;17.01;51.80
81865;BME280;71313;43.514;1.500;2024-03-29T05:00:26;97802.94;;;16.98;52.95
81865;BME280;71313;43.514;1.500;2024-03-29T05:02:52;97800.25;;;16.98;51.88
81865;BME280;71313;43.514;1.500;2024-03-29T05:05:17;97802.31;;;16.96;52.25
81865;BME280;71313;43.514;1.500;2024-03-29T05:07:42;97798.97;;;16.94;52.10
81865;BME280;71313;43.514;1.500;2024-03-29T05:10:09;97783.09;;;16.91;52.75
81865;BME280;71313;43.514;1.500;2024-03-29T05:12:38;97786.00;;;16.90;53.12
81865;BME280;71313;43.514;1.500;2024-03-29T05:15:03;97780.16;;;16.86;52.86
81865;BME280;71313;43.514;1.500;2024-03-29T05:17:29;97785.97;;;16.83;53.25
81865;BME280;71313;43.514;1.500;2024-03-29T05:19:55;97795.75;;;16.84;53.08
81865;BME280;71313;43.514;1.500;2024-03-29T05:22:21;97800.53;;;16.82;52.45
81865;BME280;71313;43.514;1.500;2024-03-29T05:24:46;97810.53;;;16.81;53.04
81865;BME280;71313;43.514;1.500;2024-03-29T05:27:13;97821.75;;;16.78;53.34
81865;BME280;71313;43.514;1.500;2024-03-29T05:29:40;97811.75;;;16.79;53.06
81865;BME280;71313;43.514;1.500;2024-03-29T05:32:06;97800.09;;;16.78;53.48
81865;BME280;71313;43.514;1.500;2024-03-29T05:34:32;97808.41;;;16.77;52.82
81865;BME280;71313;43.514;1.500;2024-03-29T05:36:57;97794.22;;;16.75;52.99
81865;BME280;71313;43.514;1.500;2024-03-29T05:39:24;97795.25;;;16.74;52.42
81865;BME280;71313;43.514;1.500;2024-03-29T05:41:49;97789.19;;;16.72;52.74
81865;BME280;71313;43.514;1.500;2024-03-29T05:44:16;97782.09;;;16.71;52.74
81865;BME280;71313;43.514;1.500;2024-03-29T05:46:42;97779.78;;;16.68;52.42
81865;BME280;71313;43.514;1.500;2024-03-29T05:49:08;97783.53;;;16.67;53.01
81865;BME280;71313;43.514;1.500;2024-03-29T05:51:33;97798.28;;;16.64;53.19
81865;BME280;71313;43.514;1.500;2024-03-29T05:54:01;97810.31;;;16.62;53.53
81865;BME280;71313;43.514;1.500;2024-03-29T05:56:29;97810.53;;;16.60;53.26
81865;BME280;71313;43.514;1.500;2024-03-29T05:58:56;97815.28;;;16.58;53.88
81865;BME280;71313;43.514;1.500;2024-03-29T06:01:21;97812.78;;;16.56;53.09
81865;BME280;71313;43.514;1.500;2024-03-29T06:03:48;97813.16;;;16.53;53.64
81865;BME280;71313;43.514;1.500;2024-03-29T06:06:14;97820.66;;;16.51;53.28
81865;BME280;71313;43.514;1.500;2024-03-29T06:08:42;97837.72;;;16.52;53.89
81865;BME280;71313;43.514;1.500;2024-03-29T06:11:09;97831.84;;;16.48;53.79
81865;BME280;71313;43.514;1.500;2024-03-29T06:13:34;97834.56;;;16.48;53.88
81865;BME280;71313;43.514;1.500;2024-03-29T06:16:36;97835.97;;;16.44;53.69
81865;BME280;71313;43.514;1.500;2024-03-29T06:19:20;97834.31;;;16.43;54.13
81865;BME280;71313;43.514;1.500;2024-03-29T06:21:45;97842.63;;;16.42;53.44
81865;BME280;71313;43.514;1.500;2024-03-29T06:24:12;97845.50;;;16.40;52.85
81865;BME280;71313;43.514;1.500;2024-03-29T06:26:40;97848.22;;;16.40;53.05
81865;BME280;71313;43.514;1.500;2024-03-29T06:29:06;97849.25;;;16.39;53.20
81865;BME280;71313;43.514;1.500;2024-03-29T06:31:31;97845.91;;;16.37;53.70
81865;BME280;71313;43.514;1.500;2024-03-29T06:33:57;97845.91;;;16.37;54.04
81865;BME280;71313;43.514;1.500;2024-03-29T06:36:23;97845.06;;;16.37;53.41
81865;BME280;71313;43.514;1.500;2024-03-29T06:38:48;97849.63;;;16.36;53.17
81865;BME280;71313;43.514;1.500;2024-03-29T06:41:14;97853.38;;;16.35;53.43
81865;BME280;71313;43.514;1.500;2024-03-29T06:43:42;97855.06;;;16.36;53.87
81865;BME280;71313;43.514;1.500;2024-03-29T06:46:11;97852.34;;;16.36;53.26
81865;BME280;71313;43.514;1.500;2024-03-29T06:48:37;97849.63;;;16.36;53.77
81865;BME280;71313;43.514;1.500;2024-03-29T06:51:03;97846.28;;;16.34;54.33
81865;BME280;71313;43.514;1.500;2024-03-29T06:53:29;97852.34;;;16.36;53.74
81865;BME280;71313;43.514;1.500;2024-03-29T06:55:55;97841.50;;;16.36;54.08
81865;BME280;71313;43.514;1.500;2024-03-29T06:58:23;97840.50;;;16.37;53.41
81865;BME280;71313;43.514;1.500;2024-03-29T07:00:50;97851.31;;;16.37;53.75
81865;BME280;71313;43.514;1.500;2024-03-29T07:03:18;97846.75;;;16.38;53.91
81865;BME280;71313;43.514;1.500;2024-03-29T07:05:45;97845.72;;;16.39;54.11
81865;BME280;71313;43.514;1.500;2024-03-29T07:08:10;97850.94;;;16.40;54.22
81865;BME280;71313;43.514;1.500;2024-03-29T07:10:36;97860.53;;;16.43;53.82
81865;BME280;71313;43.514;1.500;2024-03-29T07:13:02;97855.97;;;16.43;54.61
81865;BME280;71313;43.514;1.500;2024-03-29T07:15:29;97861.00;;;16.46;53.85
81865;BME280;71313;43.514;1.500;2024-03-29T07:17:54;97858.94;;;16.48;54.14
81865;BME280;71313;43.514;1.500;2024-03-29T07:20:23;97858.72;;;16.50;53.25
81865;BME280;71313;43.514;1.500;2024-03-29T07:22:49;97856.88;;;16.50;53.33
81865;BME280;71313;43.514;1.500;2024-03-29T07:25:14;97856.47;;;16.53;54.13
81865;BME280;71313;43.514;1.500;2024-03-29T07:27:39;97849.00;;;16.55;53.80
81865;BME280;71313;43.514;1.500;2024-03-29T07:30:06;97844.22;;;16.58;54.26
81865;BME280;71313;43.514;1.500;2024-03-29T07:32:33;97854.88;;;16.59;54.29
81865;BME280;71313;43.514;1.500;2024-03-29T07:34:59;97851.97;;;16.61;53.89
81865;BME280;71313;43.514;1.500;2024-03-29T07:37:25;97842.63;;;16.63;54.24
81865;BME280;71313;43.514;1.500;2024-03-29T07:39:50;97839.06;;;16.63;53.04
81865;BME280;71313;43.514;1.500;2024-03-29T07:42:17;97846.84;;;16.66;53.75
81865;BME280;71313;43.514;1.500;2024-03-29T07:44:44;97843.09;;;16.67;53.40
81865;BME280;71313;43.514;1.500;2024-03-29T07:47:10;97831.63;;;16.65;53.53
81865;BME280;71313;43.514;1.500;2024-03-29T07:49:35;97838.34;;;16.69;53.36
81865;BME280;71313;43.514;1.500;2024-03-29T07:52:04;97836.25;;;16.71;53.63
81865;BME280;71313;43.514;1.500;2024-03-29T07:54:33;97821.69;;;16.72;53.40
81865;BME280;71313;43.514;1.500;2024-03-29T07:56:59;97810.88;;;16.72;53.19
81865;BME280;71313;43.514;1.500;2024-03-29T07:59:24;97814.22;;;16.74;53.20
81865;BME280;71313;43.514;1.500;2024-03-29T08:01:50;97822.16;;;16.75;53.02
81865;BME280;71313;43.514;1.500;2024-03-29T08:04:17;97827.38;;;16.77;53.82
81865;BME280;71313;43.514;1.500;2024-03-29T08:06:43;97822.97;;;16.76;53.58
81865;BME280;71313;43.514;1.500;2024-03-29T08:09:09;97830.91;;;16.77;53.70
81865;BME280;71313;43.514;1.500;2024-03-29T08:11:39;97838.84;;;16.79;52.91
81865;BME280;71313;43.514;1.500;2024-03-29T08:14:04;97840.50;;;16.80;52.68
81865;BME280;71313;43.514;1.500;2024-03-29T08:16:30;97853.03;;;16.81;53.53
81865;BME280;71313;43.514;1.500;2024-03-29T08:18:55;97860.13;;;16.82;53.74
81865;BME280;71313;43.514;1.500;2024-03-29T08:21:23;97854.50;;;16.83;52.79
81865;BME280;71313;43.514;1.500;2024-03-29T08:23:48;97863.47;;;16.84;53.60
81865;BME280;71313;43.514;1.500;2024-03-29T08:26:16;97850.56;;;16.86;52.70
81865;BME280;71313;43.514;1.500;2024-03-29T08:28:44;97848.06;;;16.84;53.41
81865;BME280;71313;43.514;1.500;2024-03-29T08:31:10;97851.84;;;16.90;53.06
81865;BME280;71313;43.514;1.500;2024-03-29T08:33:37;97843.53;;;16.92;53.56
81865;BME280;71313;43.514;1.500;2024-03-29T08:36:04;97837.72;;;16.95;53.04
81865;BME280;71313;43.514;1.500;2024-03-29T08:38:30;97833.16;;;16.95;53.08
81865;BME280;71313;43.514;1.500;2024-03-29T08:40:57;97823.97;;;16.96;53.38
81865;BME280;71313;43.514;1.500;2024-03-29T08:43:22;97816.50;;;16.98;54.01
81865;BME280;71313;43.514;1.500;2024-03-29T08:45:48;97826.94;;;17.01;53.58
81865;BME280;71313;43.514;1.500;2024-03-29T08:48:15;97827.59;;;17.03;53.99
81865;BME280;71313;43.514;1.500;2024-03-29T08:50:40;97823.84;;;17.04;53.15
81865;BME280;71313;43.514;1.500;2024-03-29T08:53:06;97826.16;;;17.07;53.77
81865;BME280;71313;43.514;1.500;2024-03-29T08:55:35;97830.53;;;17.08;53.08
81865;BME280;71313;43.514;1.500;2024-03-29T08:58:04;97825.75;;;17.10;53.65
81865;BME280;71313;43.514;1.500;2024-03-29T09:00:30;97828.91;;;17.14;53.70
81865;BME280;71313;43.514;1.500;2024-03-29T09:02:57;97832.47;;;17.14;53.80
81865;BME280;71313;43.514;1.500;2024-03-29T09:05:23;97842.91;;;17.17;53.97
81865;BME280;71313;43.514;1.500;2024-03-29T09:07:49;97847.28;;;17.18;53.11
81865;BME280;71313;43.514;1.500;2024-03-29T09:10:15;97843.16;;;17.23;53.93
81865;BME280;71313;43.514;1.500;2024-03-29T09:12:41;97849.22;;;17.25;53.16
81865;BME280;71313;43.514;1.500;2024-03-29T09:15:07;97844.22;;;17.28;53.37
81865;BME280;71313;43.514;1.500;2024-03-29T09:17:38;97849.47;;;17.30;54.14
81865;BME280;71313;43.514;1.500;2024-03-29T09:20:04;97848.03;;;17.34;54.35
81865;BME280;71313;43.514;1.500;2024-03-29T09:22:30;97846.78;;;17.36;53.28
81865;BME280;71313;43.514;1.500;2024-03-29T09:24:55;97845.56;;;17.39;53.52
81865;BME280;71313;43.514;1.500;2024-03-29T09:27:20;97849.75;;;17.41;54.32
81865;BME280;71313;43.514;1.500;2024-03-29T09:29:49;97846.84;;;17.43;53.37
81865;BME280;71313;43.514;1.500;2024-03-29T09:32:15;97848.13;;;17.47;54.28
81865;BME280;71313;43.514;1.500;2024-03-29T09:34:43;97849.59;;;17.49;53.48
81865;BME280;71313;43.514;1.500;2024-03-29T09:37:09;97842.72;;;17.53;54.38
81865;BME280;71313;43.514;1.500;2024-03-29T09:39:34;97836.91;;;17.57;53.41
81865;BME280;71313;43.514;1.500;2024-03-29T09:42:02;97849.03;;;17.61;54.33
81865;BME280;71313;43.514;1.500;2024-03-29T09:44:31;97833.19;;;17.64;53.94
81865;BME280;71313;43.514;1.500;2024-03-29T09:47:01;97824.88;;;17.66;54.40
81865;BME280;71313;43.514;1.500;2024-03-29T09:49:27;97811.75;;;17.69;53.74
81865;BME280;71313;43.514;1.500;2024-03-29T09:51:54;97815.75;;;17.73;53.97
81865;BME280;71313;43.514;1.500;2024-03-29T09:54:20;97819.09;;;17.75;54.64
81865;BME280;71313;43.514;1.500;2024-03-29T09:56:47;97813.06;;;17.80;54.61
81865;BME280;71313;43.514;1.500;2024-03-29T09:59:12;97803.69;;;17.82;55.03
81865;BME280;71313;43.514;1.500;2024-03-29T10:01:38;97805.16;;;17.85;54.23
81865;BME280;71313;43.514;1.500;2024-03-29T10:04:05;97800.78;;;17.91;54.59
81865;BME280;71313;43.514;1.500;2024-03-29T10:06:34;97807.50;;;17.95;54.88
81865;BME280;71313;43.514;1.500;2024-03-29T10:09:00;97809.81;;;17.98;55.06
81865;BME280;71313;43.514;1.500;2024-03-29T10:11:27;97811.06;;;18.02;54.57
81865;BME280;71313;43.514;1.500;2024-03-29T10:13:53;97800.44;;;18.07;54.86
81865;BME280;71313;43.514;1.500;2024-03-29T10:16:19;97792.94;;;18.09;55.47
81865;BME280;71313;43.514;1.500;2024-03-29T10:18:48;97797.53;;;18.15;55.59
81865;BME280;71313;43.514;1.500;2024-03-29T10:21:13;97798.81;;;18.19;55.65
81865;BME280;71313;43.514;1.500;2024-03-29T10:23:40;97787.50;;;18.22;55.45
81865;BME280;71313;43.514;1.500;2024-03-29T10:26:06;97783.97;;;18.28;54.77
81865;BME280;71313;43.514;1.500;2024-03-29T10:28:33;97781.69;;;18.32;55.80
81865;BME280;71313;43.514;1.500;2024-03-29T10:31:04;97777.31;;;18.37;55.24
81865;BME280;71313;43.514;1.500;2024-03-29T10:33:34;97770.41;;;18.41;55.44
81865;BME280;71313;43.514;1.500;2024-03-29T10:36:02;97778.78;;;18.46;55.11
81865;BME280;71313;43.514;1.500;2024-03-29T10:38:30;97758.94;;;18.53;55.69
81865;BME280;71313;43.514;1.500;2024-03-29T10:40:58;97759.97;;;18.58;55.60
81865;BME280;71313;43.514;1.500;2024-03-29T10:43:25;97761.06;;;18.64;54.95
81865;BME280;71313;43.514;1.500;2024-03-29T10:45:51;97761.28;;;18.69;55.06
81865;BME280;71313;43.514;1.500;2024-03-29T10:48:21;97768.59;;;18.75;54.85
81865;BME280;71313;43.514;1.500;2024-03-29T10:50:48;97766.69;;;18.82;55.49
81865;BME280;71313;43.514;1.500;2024-03-29T10:53:16;97753.31;;;18.87;54.65
81865;BME280;71313;43.514;1.500;2024-03-29T10:55:42;97757.91;;;18.93;55.32
81865;BME280;71313;43.514;1.500;2024-03-29T10:58:13;97764.19;;;19.00;55.46
81865;BME280;71313;43.514;1.500;2024-03-29T11:00:47;97756.22;;;19.05;54.54
81865;BME280;71313;43.514;1.500;2024-03-29T11:03:18;97753.50;;;19.12;54.26
81865;BME280;71313;43.514;1.500;2024-03-29T11:05:47;97750.78;;;19.19;55.15
81865;BME280;71313;43.514;1.500;2024-03-29T11:08:17;97739.25;;;19.23;55.06
81865;BME280;71313;43.514;1.500;2024-03-29T11:10:47;97744.69;;;19.30;55.35
81865;BME280;71313;43.514;1.500;2024-03-29T11:15:58;97735.44;;;19.44;54.66
81865;BME280;71313;43.514;1.500;2024-03-29T11:18:29;97741.91;;;19.50;54.16
81865;BME280;71313;43.514;1.500;2024-03-29T11:20:57;97732.91;;;19.56;54.64
81865;BME280;71313;43.514;1.500;2024-03-29T11:23:25;97731.00;;;19.63;53.53
81865;BME280;71313;43.514;1.500;2024-03-29T11:25:52;97730.75;;;19.71;53.54
81865;BME280;71313;43.514;1.500;2024-03-29T11:28:34;97722.56;;;19.77;54.50
81865;BME280;71313;43.514;1.500;2024-03-29T11:31:02;97715.19;;;19.85;53.70
81865;BME280;71313;43.514;1.500;2024-03-29T11:36:11;97721.63;;;19.97;53.31
81865;BME280;71313;43.514;1.500;2024-03-29T11:38:37;97719.06;;;20.02;54.07
81865;BME280;71313;43.514;1.500;2024-03-29T11:41:05;97727.81;;;20.10;53.15
81865;BME280;71313;43.514;1.500;2024-03-29T11:43:32;97712.72;;;20.15;54.04
81865;BME280;71313;43.514;1.500;2024-03-29T11:46:00;97716.44;;;20.20;53.15
81865;BME280;71313;43.514;1.500;2024-03-29T11:48:29;97711.41;;;20.24;53.45
81865;BME280;71313;43.514;1.500;2024-03-29T11:50:56;97708.00;;;20.28;53.03
81865;BME280;71313;43.514;1.500;2024-03-29T11:53:21;97713.03;;;20.31;53.07
81865;BME280;71313;43.514;1.500;2024-03-29T11:55:47;97683.22;;;20.36;53.29
81865;BME280;71313;43.514;1.500;2024-03-29T11:58:18;97668.16;;;20.40;52.58
81865;BME280;71313;43.514;1.500;2024-03-29T12:00:44;97707.50;;;20.45;52.85
81865;BME280;71313;43.514;1.500;2024-03-29T12:03:13;97694.50;;;20.47;52.79
81865;BME280;71313;43.514;1.500;2024-03-29T12:05:38;97661.34;;;20.50;52.86
81865;BME280;71313;43.514;1.500;2024-03-29T12:08:04;97668.03;;;20.54;52.20
81865;BME280;71313;43.514;1.500;2024-03-29T12:10:30;97685.59;;;20.58;52.62
81865;BME280;71313;43.514;1.500;2024-03-29T12:12:59;97675.91;;;20.62;52.72
81865;BME280;71313;43.514;1.500;2024-03-29T12:15:27;97676.31;;;20.65;52.14
81865;BME280;71313;43.514;1.500;2024-03-29T12:17:57;97682.16;;;20.69;51.87
81865;BME280;71313;43.514;1.500;2024-03-29T12:20:23;97677.91;;;20.73;51.64
81865;BME280;71313;43.514;1.500;2024-03-29T12:22:49;97665.72;;;20.76;51.40
81865;BME280;71313;43.514;1.500;2024-03-29T12:25:15;97676.53;;;20.82;52.21
81865;BME280;71313;43.514;1.500;2024-03-29T12:27:43;97684.25;;;20.85;51.34
81865;BME280;71313;43.514;1.500;2024-03-29T12:30:10;97670.19;;;20.88;51.95
81865;BME280;71313;43.514;1.500;2024-03-29T12:32:36;97671.41;;;20.92;52.08
81865;BME280;71313;43.514;1.500;2024-03-29T12:35:11;97664.66;;;20.95;51.60
81865;BME280;71313;43.514;1.500;2024-03-29T12:37:37;97655.81;;;20.99;51.52
81865;BME280;71313;43.514;1.500;2024-03-29T12:40:06;97656.41;;;21.01;51.44
81865;BME280;71313;43.514;1.500;2024-03-29T12:42:40;97652.78;;;21.07;51.06
81865;BME280;71313;43.514;1.500;2024-03-29T12:45:07;97651.50;;;21.10;51.72
81865;BME280;71313;43.514;1.500;2024-03-29T12:47:35;97657.31;;;21.14;51.21
81865;BME280;71313;43.514;1.500;2024-03-29T12:50:02;97657.72;;;21.17;51.92
81865;BME280;71313;43.514;1.500;2024-03-29T12:52:36;97653.09;;;21.18;51.15
81865;BME280;71313;43.514;1.500;2024-03-29T12:55:02;97645.09;;;21.23;52.01
81865;BME280;71313;43.514;1.500;2024-03-29T12:57:27;97654.47;;;21.27;51.06
81865;BME280;71313;43.514;1.500;2024-03-29T12:59:53;97663.88;;;21.31;51.00
81865;BME280;71313;43.514;1.500;2024-03-29T13:02:20;97656.06;;;21.34;50.76
81865;BME280;71313;43.514;1.500;2024-03-29T13:04:47;97645.53;;;21.38;51.31
81865;BME280;71313;43.514;1.500;2024-03-29T13:07:12;97647.34;;;21.44;51.38